sensor_id;sensor_type;location;lat;lon;timestamp;temperature;humidity
74155;DHT22;62509;46.248;6.018;2023-08-31T00:01:53;16.30;53.50
74155;DHT22;62509;46.248;6.018;2023-08-31T00:06:56;16.30;54.00
74155;DHT22;62509;46.248;6.018;2023-08-31T00:12:00;16.20;54.30
74155;DHT22;62509;46.248;6.018;2023-08-31T00:17:06;16.10;55.50
74155;DHT22;62509;46.248;6.018;2023-08-31T00:22:09;16.10;55.70
74155;DHT22;62509;46.248;6.018;2023-08-31T00:27:12;16.20;55.90
74155;DHT22;62509;46.248;6.018;2023-08-31T00:32:18;16.10;56.30
74155;DHT22;62509;46.248;6.018;2023-08-31T00:37:25;16.10;55.80
74155;DHT22;62509;46.248;6.018;2023-08-31T00:42:28;16.20;56.10
74155;DHT22;62509;46.248;6.018;2023-08-31T00:47:33;16.20;55.90
74155;DHT22;62509;46.248;6.018;2023-08-31T00:52:36;16.20;55.90
74155;DHT22;62509;46.248;6.018;2023-08-31T00:57:39;16.30;55.40
74155;DHT22;62509;46.248;6.018;2023-08-31T01:02:47;16.20;56.00
74155;DHT22;62509;46.248;6.018;2023-08-31T01:07:57;16.20;56.30
74155;DHT22;62509;46.248;6.018;2023-08-31T01:13:07;16.20;56.20
74155;DHT22;62509;46.248;6.018;2023-08-31T01:18:16;16.20;55.90
74155;DHT22;62509;46.248;6.018;2023-08-31T01:23:21;16.20;56.60
74155;DHT22;62509;46.248;6.018;2023-08-31T01:28:26;15.90;64.10
74155;DHT22;62509;46.248;6.018;2023-08-31T01:33:30;15.70;69.10
74155;DHT22;62509;46.248;6.018;2023-08-31T01:38:33;15.50;74.40
74155;DHT22;62509;46.248;6.018;2023-08-31T01:43:39;15.40;78.20
74155;DHT22;62509;46.248;6.018;2023-08-31T01:48:43;15.30;80.60
74155;DHT22;62509;46.248;6.018;2023-08-31T01:53:47;15.40;80.60
74155;DHT22;62509;46.248;6.018;2023-08-31T01:58:51;15.40;81.00
74155;DHT22;62509;46.248;6.018;2023-08-31T02:03:55;15.30;81.70
74155;DHT22;62509;46.248;6.018;2023-08-31T02:08:58;15.00;83.30
74155;DHT22;62509;46.248;6.018;2023-08-31T02:14:03;14.80;85.10
74155;DHT22;62509;46.248;6.018;2023-08-31T02:19:06;14.90;86.40
74155;DHT22;62509;46.248;6.018;2023-08-31T02:24:10;14.90;85.60
74155;DHT22;62509;46.248;6.018;2023-08-31T02:29:14;15.00;83.00
74155;DHT22;62509;46.248;6.018;2023-08-31T02:34:18;15.00;84.10
74155;DHT22;62509;46.248;6.018;2023-08-31T02:39:21;15.00;85.20
74155;DHT22;62509;46.248;6.018;2023-08-31T02:44:26;15.00;84.20
74155;DHT22;62509;46.248;6.018;2023-08-31T02:49:29;14.90;85.10
74155;DHT22;62509;46.248;6.018;2023-08-31T02:54:32;14.90;85.10
74155;DHT22;62509;46.248;6.018;2023-08-31T02:59:37;15.00;84.70
74155;DHT22;62509;46.248;6.018;2023-08-31T03:04:40;14.90;84.80
74155;DHT22;62509;46.248;6.018;2023-08-31T03:09:48;14.90;85.40
74155;DHT22;62509;46.248;6.018;2023-08-31T03:14:53;15.10;78.30
74155;DHT22;62509;46.248;6.018;2023-08-31T03:19:57;15.20;74.10
74155;DHT22;62509;46.248;6.018;2023-08-31T03:25:00;15.20;71.60
74155;DHT22;62509;46.248;6.018;2023-08-31T03:30:05;15.30;70.60
74155;DHT22;62509;46.248;6.018;2023-08-31T03:35:09;15.20;70.90
74155;DHT22;62509;46.248;6.018;2023-08-31T03:40:13;15.00;73.70
74155;DHT22;62509;46.248;6.018;2023-08-31T03:45:18;14.80;77.30
74155;DHT22;62509;46.248;6.018;2023-08-31T03:50:21;14.80;77.20
74155;DHT22;62509;46.248;6.018;2023-08-31T03:55:24;15.00;76.70
74155;DHT22;62509;46.248;6.018;2023-08-31T04:00:29;15.00;75.70
74155;DHT22;62509;46.248;6.018;2023-08-31T04:05:32;15.10;74.40
74155;DHT22;62509;46.248;6.018;2023-08-31T04:10:36;15.10;73.00
74155;DHT22;62509;46.248;6.018;2023-08-31T04:15:41;15.30;70.80
74155;DHT22;62509;46.248;6.018;2023-08-31T04:20:48;15.40;69.50
74155;DHT22;62509;46.248;6.018;2023-08-31T04:25:53;15.40;68.70
74155;DHT22;62509;46.248;6.018;2023-08-31T04:30:57;15.50;67.00
74155;DHT22;62509;46.248;6.018;2023-08-31T04:36:02;15.60;67.00
74155;DHT22;62509;46.248;6.018;2023-08-31T04:41:07;15.60;67.10
74155;DHT22;62509;46.248;6.018;2023-08-31T04:46:12;15.40;69.20
74155;DHT22;62509;46.248;6.018;2023-08-31T04:51:28;15.50;70.00
74155;DHT22;62509;46.248;6.018;2023-08-31T04:56:34;15.40;70.40
74155;DHT22;62509;46.248;6.018;2023-08-31T05:01:38;15.40;70.60
74155;DHT22;62509;46.248;6.018;2023-08-31T05:06:42;15.50;71.30
74155;DHT22;62509;46.248;6.018;2023-08-31T05:11:45;15.70;70.10
74155;DHT22;62509;46.248;6.018;2023-08-31T05:16:50;15.80;70.80
74155;DHT22;62509;46.248;6.018;2023-08-31T05:21:53;15.70;71.90
74155;DHT22;62509;46.248;6.018;2023-08-31T05:26:56;15.70;72.50
74155;DHT22;62509;46.248;6.018;2023-08-31T05:32:01;15.90;71.60
74155;DHT22;62509;46.248;6.018;2023-08-31T05:37:05;16.00;68.30
74155;DHT22;62509;46.248;6.018;2023-08-31T05:42:08;16.00;68.10
74155;DHT22;62509;46.248;6.018;2023-08-31T05:47:13;16.10;68.50
74155;DHT22;62509;46.248;6.018;2023-08-31T05:52:16;16.00;69.70
74155;DHT22;62509;46.248;6.018;2023-08-31T05:57:20;15.90;70.10
74155;DHT22;62509;46.248;6.018;2023-08-31T06:02:25;16.00;68.10
74155;DHT22;62509;46.248;6.018;2023-08-31T06:07:28;16.00;66.80
74155;DHT22;62509;46.248;6.018;2023-08-31T06:12:31;16.20;64.90
74155;DHT22;62509;46.248;6.018;2023-08-31T06:17:36;16.50;62.30
74155;DHT22;62509;46.248;6.018;2023-08-31T06:22:39;17.00;61.10
74155;DHT22;62509;46.248;6.018;2023-08-31T06:27:43;17.20;60.80
74155;DHT22;62509;46.248;6.018;2023-08-31T06:32:47;17.30;60.80
74155;DHT22;62509;46.248;6.018;2023-08-31T06:37:51;17.30;60.20
74155;DHT22;62509;46.248;6.018;2023-08-31T06:42:57;17.30;60.70
74155;DHT22;62509;46.248;6.018;2023-08-31T06:48:02;17.50;59.90
74155;DHT22;62509;46.248;6.018;2023-08-31T06:53:06;17.70;59.60
74155;DHT22;62509;46.248;6.018;2023-08-31T06:58:09;18.00;58.20
74155;DHT22;62509;46.248;6.018;2023-08-31T07:03:14;18.00;57.50
74155;DHT22;62509;46.248;6.018;2023-08-31T07:08:18;18.10;57.10
74155;DHT22;62509;46.248;6.018;2023-08-31T07:13:21;18.00;57.60
74155;DHT22;62509;46.248;6.018;2023-08-31T07:18:26;18.30;57.00
74155;DHT22;62509;46.248;6.018;2023-08-31T07:23:29;18.30;56.80
74155;DHT22;62509;46.248;6.018;2023-08-31T07:28:33;18.30;56.60
74155;DHT22;62509;46.248;6.018;2023-08-31T07:33:37;18.60;55.90
74155;DHT22;62509;46.248;6.018;2023-08-31T07:38:41;18.80;54.40
74155;DHT22;62509;46.248;6.018;2023-08-31T07:43:44;19.00;54.30
74155;DHT22;62509;46.248;6.018;2023-08-31T07:49:06;18.80;55.20
74155;DHT22;62509;46.248;6.018;2023-08-31T07:54:09;19.10;53.50
74155;DHT22;62509;46.248;6.018;2023-08-31T07:59:12;19.20;53.10
74155;DHT22;62509;46.248;6.018;2023-08-31T08:04:17;19.40;52.50
74155;DHT22;62509;46.248;6.018;2023-08-31T08:09:21;19.50;52.30
74155;DHT22;62509;46.248;6.018;2023-08-31T08:14:24;19.60;52.80
74155;DHT22;62509;46.248;6.018;2023-08-31T08:19:29;19.90;50.60
74155;DHT22;62509;46.248;6.018;2023-08-31T08:24:33;19.90;49.00
74155;DHT22;62509;46.248;6.018;2023-08-31T08:29:36;19.90;49.40
74155;DHT22;62509;46.248;6.018;2023-08-31T08:34:41;20.20;48.40
74155;DHT22;62509;46.248;6.018;2023-08-31T08:39:47;20.70;46.50
74155;DHT22;62509;46.248;6.018;2023-08-31T08:44:51;20.90;45.80
74155;DHT22;62509;46.248;6.018;2023-08-31T08:49:56;20.90;44.90
74155;DHT22;62509;46.248;6.018;2023-08-31T08:55:04;21.30;42.00
74155;DHT22;62509;46.248;6.018;2023-08-31T09:00:09;21.30;39.50
74155;DHT22;62509;46.248;6.018;2023-08-31T09:05:15;21.10;38.60
74155;DHT22;62509;46.248;6.018;2023-08-31T09:10:18;20.90;38.10
74155;DHT22;62509;46.248;6.018;2023-08-31T09:15:21;20.90;39.50
74155;DHT22;62509;46.248;6.018;2023-08-31T09:20:26;21.10;38.80
74155;DHT22;62509;46.248;6.018;2023-08-31T09:25:29;21.30;36.80
74155;DHT22;62509;46.248;6.018;2023-08-31T09:30:34;21.50;35.30
74155;DHT22;62509;46.248;6.018;2023-08-31T09:35:40;21.50;34.80
74155;DHT22;62509;46.248;6.018;2023-08-31T09:40:44;22.10;36.70
74155;DHT22;62509;46.248;6.018;2023-08-31T09:45:47;22.00;35.10
74155;DHT22;62509;46.248;6.018;2023-08-31T09:50:52;22.00;38.50
74155;DHT22;62509;46.248;6.018;2023-08-31T09:55:57;21.70;38.60
74155;DHT22;62509;46.248;6.018;2023-08-31T10:01:01;22.10;37.80
74155;DHT22;62509;46.248;6.018;2023-08-31T10:06:15;22.00;37.40
74155;DHT22;62509;46.248;6.018;2023-08-31T10:11:18;22.00;38.10
74155;DHT22;62509;46.248;6.018;2023-08-31T10:16:24;22.40;35.50
74155;DHT22;62509;46.248;6.018;2023-08-31T10:21:29;22.20;36.90
74155;DHT22;62509;46.248;6.018;2023-08-31T10:26:33;22.40;33.80
74155;DHT22;62509;46.248;6.018;2023-08-31T10:31:36;22.30;34.80
74155;DHT22;62509;46.248;6.018;2023-08-31T10:36:41;22.10;36.10
74155;DHT22;62509;46.248;6.018;2023-08-31T10:41:52;22.00;34.40
74155;DHT22;62509;46.248;6.018;2023-08-31T10:46:59;21.70;34.40
74155;DHT22;62509;46.248;6.018;2023-08-31T10:52:18;21.60;34.90
74155;DHT22;62509;46.248;6.018;2023-08-31T10:57:42;21.70;35.40
74155;DHT22;62509;46.248;6.018;2023-08-31T11:02:46;21.60;35.00
74155;DHT22;62509;46.248;6.018;2023-08-31T11:07:53;21.70;34.70
74155;DHT22;62509;46.248;6.018;2023-08-31T11:12:58;21.60;34.60
74155;DHT22;62509;46.248;6.018;2023-08-31T11:18:02;22.00;33.90
74155;DHT22;62509;46.248;6.018;2023-08-31T11:23:07;21.50;33.60
74155;DHT22;62509;46.248;6.018;2023-08-31T11:28:10;21.40;34.80
74155;DHT22;62509;46.248;6.018;2023-08-31T11:33:13;22.00;35.20
74155;DHT22;62509;46.248;6.018;2023-08-31T11:38:18;22.40;34.20
74155;DHT22;62509;46.248;6.018;2023-08-31T11:43:22;22.50;32.70
74155;DHT22;62509;46.248;6.018;2023-08-31T11:48:25;22.40;33.20
74155;DHT22;62509;46.248;6.018;2023-08-31T11:53:30;22.70;33.20
74155;DHT22;62509;46.248;6.018;2023-08-31T11:58:39;23.00;32.80
74155;DHT22;62509;46.248;6.018;2023-08-31T12:03:55;23.70;31.10
74155;DHT22;62509;46.248;6.018;2023-08-31T12:09:00;23.60;30.00
74155;DHT22;62509;46.248;6.018;2023-08-31T12:14:17;23.80;29.60
74155;DHT22;62509;46.248;6.018;2023-08-31T12:19:22;23.10;29.60
74155;DHT22;62509;46.248;6.018;2023-08-31T12:24:38;23.00;30.50
74155;DHT22;62509;46.248;6.018;2023-08-31T12:29:42;23.10;31.30
74155;DHT22;62509;46.248;6.018;2023-08-31T12:34:45;23.40;29.90
74155;DHT22;62509;46.248;6.018;2023-08-31T12:39:49;22.90;31.00
74155;DHT22;62509;46.248;6.018;2023-08-31T12:44:53;23.20;30.20
74155;DHT22;62509;46.248;6.018;2023-08-31T12:49:56;22.90;30.60
74155;DHT22;62509;46.248;6.018;2023-08-31T12:55:01;23.10;31.80
74155;DHT22;62509;46.248;6.018;2023-08-31T13:00:06;23.10;30.80
74155;DHT22;62509;46.248;6.018;2023-08-31T13:05:11;23.20;30.40
74155;DHT22;62509;46.248;6.018;2023-08-31T13:10:16;22.90;30.10
74155;DHT22;62509;46.248;6.018;2023-08-31T13:15:19;22.60;32.10
74155;DHT22;62509;46.248;6.018;2023-08-31T13:20:23;23.10;31.50
74155;DHT22;62509;46.248;6.018;2023-08-31T13:25:27;23.50;29.70
74155;DHT22;62509;46.248;6.018;2023-08-31T13:30:31;23.70;29.40
74155;DHT22;62509;46.248;6.018;2023-08-31T13:35:34;23.60;29.70
74155;DHT22;62509;46.248;6.018;2023-08-31T13:40:39;23.60;28.80
74155;DHT22;62509;46.248;6.018;2023-08-31T13:45:43;23.60;29.10
74155;DHT22;62509;46.248;6.018;2023-08-31T13:50:46;23.50;29.10
74155;DHT22;62509;46.248;6.018;2023-08-31T13:55:51;23.60;29.30
74155;DHT22;62509;46.248;6.018;2023-08-31T14:00:54;23.70;29.30
74155;DHT22;62509;46.248;6.018;2023-08-31T14:05:58;23.70;28.80
74155;DHT22;62509;46.248;6.018;2023-08-31T14:11:02;23.60;29.80
74155;DHT22;62509;46.248;6.018;2023-08-31T14:16:06;23.40;30.10
74155;DHT22;62509;46.248;6.018;2023-08-31T14:21:14;23.30;30.40
74155;DHT22;62509;46.248;6.018;2023-08-31T14:26:19;23.20;30.00
74155;DHT22;62509;46.248;6.018;2023-08-31T14:31:22;23.70;28.70
74155;DHT22;62509;46.248;6.018;2023-08-31T14:36:25;24.00;28.60
74155;DHT22;62509;46.248;6.018;2023-08-31T14:41:31;24.10;28.70
74155;DHT22;62509;46.248;6.018;2023-08-31T14:46:34;23.70;28.90
74155;DHT22;62509;46.248;6.018;2023-08-31T14:51:37;23.70;29.30
74155;DHT22;62509;46.248;6.018;2023-08-31T14:56:42;23.90;28.20
74155;DHT22;62509;46.248;6.018;2023-08-31T15:01:46;23.90;29.00
74155;DHT22;62509;46.248;6.018;2023-08-31T15:06:50;24.00;27.90
74155;DHT22;62509;46.248;6.018;2023-08-31T15:11:55;24.10;27.40
74155;DHT22;62509;46.248;6.018;2023-08-31T15:16:59;24.60;27.10
74155;DHT22;62509;46.248;6.018;2023-08-31T15:22:02;24.80;27.40
74155;DHT22;62509;46.248;6.018;2023-08-31T15:27:07;24.80;27.00
74155;DHT22;62509;46.248;6.018;2023-08-31T15:32:11;24.80;26.60
74155;DHT22;62509;46.248;6.018;2023-08-31T15:37:14;24.90;25.90
74155;DHT22;62509;46.248;6.018;2023-08-31T15:42:21;24.70;25.80
74155;DHT22;62509;46.248;6.018;2023-08-31T15:47:26;24.70;25.50
74155;DHT22;62509;46.248;6.018;2023-08-31T15:52:29;24.40;25.80
74155;DHT22;62509;46.248;6.018;2023-08-31T15:57:34;24.60;26.50
74155;DHT22;62509;46.248;6.018;2023-08-31T16:02:39;24.40;27.20
74155;DHT22;62509;46.248;6.018;2023-08-31T16:07:42;24.30;27.70
74155;DHT22;62509;46.248;6.018;2023-08-31T16:12:47;24.30;27.60
74155;DHT22;62509;46.248;6.018;2023-08-31T16:17:50;24.10;27.80
74155;DHT22;62509;46.248;6.018;2023-08-31T16:22:54;24.00;27.90
74155;DHT22;62509;46.248;6.018;2023-08-31T16:27:58;24.10;27.90
74155;DHT22;62509;46.248;6.018;2023-08-31T16:33:02;23.90;28.30
74155;DHT22;62509;46.248;6.018;2023-08-31T16:38:05;23.70;28.00
74155;DHT22;62509;46.248;6.018;2023-08-31T16:43:10;23.70;28.30
74155;DHT22;62509;46.248;6.018;2023-08-31T16:48:13;23.50;29.00
74155;DHT22;62509;46.248;6.018;2023-08-31T16:53:17;23.30;30.00
74155;DHT22;62509;46.248;6.018;2023-08-31T16:58:22;23.20;30.70
74155;DHT22;62509;46.248;6.018;2023-08-31T17:03:25;23.10;30.70
74155;DHT22;62509;46.248;6.018;2023-08-31T17:08:29;22.90;30.70
74155;DHT22;62509;46.248;6.018;2023-08-31T17:13:33;22.80;30.80
74155;DHT22;62509;46.248;6.018;2023-08-31T17:18:36;22.70;31.20
74155;DHT22;62509;46.248;6.018;2023-08-31T17:23:40;22.60;31.70
74155;DHT22;62509;46.248;6.018;2023-08-31T17:28:45;22.50;32.00
74155;DHT22;62509;46.248;6.018;2023-08-31T17:33:49;22.30;32.20
74155;DHT22;62509;46.248;6.018;2023-08-31T17:38:52;22.10;32.60
74155;DHT22;62509;46.248;6.018;2023-08-31T17:43:57;21.90;32.70
74155;DHT22;62509;46.248;6.018;2023-08-31T17:49:00;21.70;32.90
74155;DHT22;62509;46.248;6.018;2023-08-31T17:54:04;21.70;32.90
74155;DHT22;62509;46.248;6.018;2023-08-31T17:59:09;21.60;34.00
74155;DHT22;62509;46.248;6.018;2023-08-31T18:04:17;21.40;34.20
74155;DHT22;62509;46.248;6.018;2023-08-31T18:09:21;21.30;34.50
74155;DHT22;62509;46.248;6.018;2023-08-31T18:14:29;21.20;34.10
74155;DHT22;62509;46.248;6.018;2023-08-31T18:19:33;21.20;33.50
74155;DHT22;62509;46.248;6.018;2023-08-31T18:24:37;21.20;33.70
74155;DHT22;62509;46.248;6.018;2023-08-31T18:29:42;21.10;34.10
74155;DHT22;62509;46.248;6.018;2023-08-31T18:34:45;21.10;33.30
74155;DHT22;62509;46.248;6.018;2023-08-31T18:39:51;21.10;33.40
74155;DHT22;62509;46.248;6.018;2023-08-31T18:44:56;21.10;34.00
74155;DHT22;62509;46.248;6.018;2023-08-31T18:50:00;21.10;34.10
74155;DHT22;62509;46.248;6.018;2023-08-31T18:55:04;21.00;34.50
74155;DHT22;62509;46.248;6.018;2023-08-31T19:00:10;20.90;34.80
74155;DHT22;62509;46.248;6.018;2023-08-31T19:05:14;21.00;34.80
74155;DHT22;62509;46.248;6.018;2023-08-31T19:10:18;20.90;35.00
74155;DHT22;62509;46.248;6.018;2023-08-31T19:15:25;20.90;35.20
74155;DHT22;62509;46.248;6.018;2023-08-31T19:20:28;20.80;35.70
74155;DHT22;62509;46.248;6.018;2023-08-31T19:25:31;20.70;35.90
74155;DHT22;62509;46.248;6.018;2023-08-31T19:30:36;20.70;35.60
74155;DHT22;62509;46.248;6.018;2023-08-31T19:35:39;20.70;34.00
74155;DHT22;62509;46.248;6.018;2023-08-31T19:40:45;20.80;33.40
74155;DHT22;62509;46.248;6.018;2023-08-31T19:45:50;20.70;33.80
74155;DHT22;62509;46.248;6.018;2023-08-31T19:51:02;20.60;35.40
74155;DHT22;62509;46.248;6.018;2023-08-31T19:56:06;20.50;36.10
74155;DHT22;62509;46.248;6.018;2023-08-31T20:01:11;20.50;36.00
74155;DHT22;62509;46.248;6.018;2023-08-31T20:06:14;20.50;35.40
74155;DHT22;62509;46.248;6.018;2023-08-31T20:11:17;20.50;35.80
74155;DHT22;62509;46.248;6.018;2023-08-31T20:16:22;20.50;36.90
74155;DHT22;62509;46.248;6.018;2023-08-31T20:21:27;20.40;37.60
74155;DHT22;62509;46.248;6.018;2023-08-31T20:26:30;20.40;37.90
74155;DHT22;62509;46.248;6.018;2023-08-31T20:31:35;20.30;36.60
74155;DHT22;62509;46.248;6.018;2023-08-31T20:36:38;20.30;36.70
74155;DHT22;62509;46.248;6.018;2023-08-31T20:41:42;20.30;36.90
74155;DHT22;62509;46.248;6.018;2023-08-31T20:46:47;20.10;37.80
74155;DHT22;62509;46.248;6.018;2023-08-31T20:51:50;20.00;38.70
74155;DHT22;62509;46.248;6.018;2023-08-31T20:56:54;19.90;39.90
74155;DHT22;62509;46.248;6.018;2023-08-31T21:01:58;19.70;40.70
74155;DHT22;62509;46.248;6.018;2023-08-31T21:07:02;19.60;41.30
74155;DHT22;62509;46.248;6.018;2023-08-31T21:12:05;19.50;41.60
74155;DHT22;62509;46.248;6.018;2023-08-31T21:17:10;19.50;42.60
74155;DHT22;62509;46.248;6.018;2023-08-31T21:22:13;19.30;43.90
74155;DHT22;62509;46.248;6.018;2023-08-31T21:27:17;19.20;45.00
74155;DHT22;62509;46.248;6.018;2023-08-31T21:32:21;19.10;44.10
74155;DHT22;62509;46.248;6.018;2023-08-31T21:37:25;19.30;44.10
74155;DHT22;62509;46.248;6.018;2023-08-31T21:42:28;19.30;41.90
74155;DHT22;62509;46.248;6.018;2023-08-31T21:47:33;19.30;42.00
74155;DHT22;62509;46.248;6.018;2023-08-31T21:52:36;19.30;42.20
74155;DHT22;62509;46.248;6.018;2023-08-31T21:57:39;19.40;42.20
74155;DHT22;62509;46.248;6.018;2023-08-31T22:02:47;19.40;41.80
74155;DHT22;62509;46.248;6.018;2023-08-31T22:07:53;19.40;42.30
74155;DHT22;62509;46.248;6.018;2023-08-31T22:12:57;19.10;46.30
74155;DHT22;62509;46.248;6.018;2023-08-31T22:18:02;19.00;47.80
74155;DHT22;62509;46.248;6.018;2023-08-31T22:23:06;18.80;48.20
74155;DHT22;62509;46.248;6.018;2023-08-31T22:28:10;18.80;47.60
74155;DHT22;62509;46.248;6.018;2023-08-31T22:33:16;18.70;47.20
74155;DHT22;62509;46.248;6.018;2023-08-31T22:38:19;18.80;48.90
74155;DHT22;62509;46.248;6.018;2023-08-31T22:43:23;18.60;50.80
74155;DHT22;62509;46.248;6.018;2023-08-31T22:48:27;18.50;50.50
74155;DHT22;62509;46.248;6.018;2023-08-31T22:53:31;18.60;50.30
74155;DHT22;62509;46.248;6.018;2023-08-31T22:58:34;18.60;48.50
74155;DHT22;62509;46.248;6.018;2023-08-31T23:03:38;18.50;50.80
74155;DHT22;62509;46.248;6.018;2023-08-31T23:08:42;18.40;51.30
74155;DHT22;62509;46.248;6.018;2023-08-31T23:13:45;18.30;51.20
74155;DHT22;62509;46.248;6.018;2023-08-31T23:18:50;18.30;51.70
74155;DHT22;62509;46.248;6.018;2023-08-31T23:23:53;18.20;53.80
74155;DHT22;62509;46.248;6.018;2023-08-31T23:28:57;18.20;53.70
74155;DHT22;62509;46.248;6.018;2023-08-31T23:34:01;17.90;56.50
74155;DHT22;62509;46.248;6.018;2023-08-31T23:39:04;17.70;56.10
74155;DHT22;62509;46.248;6.018;2023-08-31T23:44:10;17.70;57.10
74155;DHT22;62509;46.248;6.018;2023-08-31T23:49:15;17.60;57.10
74155;DHT22;62509;46.248;6.018;2023-08-31T23:54:20;17.50;58.40
74155;DHT22;62509;46.248;6.018;2023-08-31T23:59:23;17.60;58.20
